EDT,Max TemperatureF,Mean TemperatureF,Min TemperatureF,Max Dew PointF,MeanDew PointF,Min DewpointF,Max Humidity, Mean Humidity, Min Humidity, Max Sea Level PressureIn, Mean Sea Level PressureIn, Min Sea Level PressureIn, Max VisibilityMiles, Mean VisibilityMiles, Min VisibilityMiles, Max Wind SpeedMPH, Mean Wind SpeedMPH, Max Gust SpeedMPH,PrecipitationIn, CloudCover, Events, WindDirDegrees
2012-10-1,63,52,41,52,46,41,100,78,55,29.96,29.90,29.81,10,9,2,15,5,17,0.46,2,Rain,80
2012-10-2,71,62,52,64,58,52,100,89,78,29.89,29.83,29.77,10,4,0,13,6,15,1.11,8,Fog-Rain,60
2012-10-3,66,62,57,63,58,53,100,86,72,30.14,30.03,29.88,10,7,0,18,9,25,0.00,5,Fog,200
2012-10-4,73,62,51,54,52,50,96,70,44,30.18,30.15,30.10,10,10,8,20,9,25,0.00,1,,208
2012-10-5,66,56,45,56,52,44,100,84,67,30.11,30.05,29.96,10,9,4,16,8,22,0.30,7,Rain,269
2012-10-6,54,46,38,45,38,34,100,73,46,30.14,30.04,29.96,10,9,3,18,8,25,0.36,5,Rain,276
2012-10-7,50,45,40,38,36,33,92,79,65,30.18,30.13,30.10,10,10,9,13,5,15,0.01,6,Rain,254
2012-10-8,52,43,33,36,33,30,96,70,44,30.25,30.21,30.16,10,10,10,14,5,17,0.00,3,,193
2012-10-9,58,47,35,40,37,35,100,72,43,30.20,30.10,29.97,10,9,5,17,10,23,0.00,0,,177
2012-10-10,52,43,34,43,37,28,92,68,44,30.21,30.00,29.87,10,10,5,20,10,29,0.03,5,Rain,251
2012-10-11,58,44,29,32,29,27,85,59,33,30.29,30.21,30.14,10,10,10,21,10,26,0.00,0,,210
2012-10-12,52,44,36,39,32,26,76,58,39,30.42,30.32,30.16,10,10,10,18,8,23,0.00,3,,6
2012-10-13,67,51,34,56,39,28,82,63,44,30.38,30.21,30.00,10,10,5,22,12,30,0.07,2,Rain,156
2012-10-14,75,68,60,61,57,55,87,72,57,30.01,29.85,29.61,10,10,5,37,22,48,0.09,5,Rain,192
2012-10-15,60,53,46,53,47,41,93,85,77,29.95,29.82,29.65,10,9,2,28,8,43,0.15,8,Rain,269
2012-10-16,60,50,40,40,37,35,83,64,44,30.02,29.93,29.83,10,10,10,13,6,17,0.00,3,,205
2012-10-17,71,61,51,50,44,39,66,53,40,29.84,29.77,29.64,10,10,10,21,12,26,T,4,Rain,164
2012-10-18,63,55,46,49,41,31,80,56,32,29.75,29.62,29.51,10,9,2,26,14,38,0.47,3,Rain,178
2012-10-19,58,51,44,45,43,34,100,70,40,29.71,29.65,29.58,10,9,5,24,12,39,0.22,7,Rain,182
2012-10-20,52,49,45,45,42,39,100,82,63,29.96,29.75,29.65,10,10,5,17,10,25,0.04,8,Rain,227
2012-10-21,60,51,41,43,39,37,89,68,47,30.14,30.09,29.98,10,10,10,13,6,16,0.00,3,,223
2012-10-22,74,60,45,54,47,40,89,68,46,30.16,30.11,30.05,10,10,10,16,8,20,0.00,1,,181
2012-10-23,68,64,59,61,54,50,90,74,58,30.05,30.02,29.98,10,10,8,21,10,28,0.08,6,Rain-Thunderstorm,203
2012-10-24,77,68,59,56,53,49,84,65,46,30.11,30.06,30.02,10,10,10,17,9,22,0.02,3,,196
2012-10-25,77,67,56,51,49,47,77,55,33,30.08,30.01,29.95,10,10,10,21,11,26,0.00,0,,174
2012-10-26,65,56,46,54,49,45,100,78,56,30.16,30.10,29.96,10,7,2,17,11,23,0.76,7,Rain,323
2012-10-27,48,46,43,45,44,40,100,88,76,30.12,30.09,30.04,10,8,2,74,12,143,0.55,8,Rain,353
2012-10-28,44,42,39,43,39,34,100,85,70,30.11,30.04,29.99,10,10,6,23,16,32,0.47,8,Rain,357
2012-10-29,41,38,34,40,37,34,100,96,92,29.97,29.79,29.51,10,7,2,35,22,46,1.24,8,Rain-Snow,332
2012-10-30,42,38,33,43,37,33,100,96,92,29.49,29.36,29.29,6,3,1,36,20,46,0.68,8,Rain-Snow,310
2012-10-31,40,38,35,38,37,35,100,96,92,29.70,29.60,29.49,10,6,2,16,11,23,0.19,8,Rain,273